createdAt,value
2022-11-23T00:01:33.472Z,11.32
2022-11-23T00:04:07.494Z,11.32
2022-11-23T00:06:35.373Z,12.38
2022-11-23T00:09:02.382Z,12.20
2022-11-23T00:11:29.678Z,11.60
2022-11-23T00:13:57.006Z,11.27
2022-11-23T00:16:27.939Z,11.70
2022-11-23T00:19:00.813Z,12.60
2022-11-23T00:21:31.361Z,13.52
2022-11-23T00:23:58.886Z,12.82
2022-11-23T00:26:26.192Z,14.38
2022-11-23T00:28:53.043Z,14.10
2022-11-23T00:31:21.822Z,14.88
2022-11-23T00:33:58.331Z,15.02
2022-11-23T00:36:27.435Z,14.77
2022-11-23T00:38:54.909Z,14.77
2022-11-23T00:41:26.035Z,14.55
2022-11-23T00:43:53.185Z,14.35
2022-11-23T00:46:27.992Z,13.82
2022-11-23T00:48:57.258Z,13.60
2022-11-23T00:51:32.590Z,14.15
2022-11-23T00:54:00.978Z,13.77
2022-11-23T00:56:29.823Z,14.00
2022-11-23T00:58:59.089Z,14.02
2022-11-23T01:01:30.824Z,14.50
2022-11-23T01:03:59.622Z,13.82
2022-11-23T01:06:39.583Z,15.00
2022-11-23T01:09:18.388Z,13.45
2022-11-23T01:11:45.904Z,13.27
2022-11-23T01:14:12.870Z,13.80
2022-11-23T01:16:41.649Z,14.82
2022-11-23T01:19:19.961Z,14.18
2022-11-23T01:21:50.247Z,12.73
2022-11-23T01:24:21.045Z,14.40
2022-11-23T01:26:55.193Z,14.00
2022-11-23T01:29:24.402Z,13.65
2022-11-23T01:31:51.207Z,13.85
2022-11-23T01:34:18.407Z,13.00
2022-11-23T01:36:45.599Z,12.80
2022-11-23T01:39:13.170Z,12.82
2022-11-23T01:41:42.795Z,11.68
2022-11-23T01:44:32.266Z,12.13
2022-11-23T01:47:08.637Z,11.85
2022-11-23T01:49:43.832Z,12.27
2022-11-23T01:52:24.294Z,11.77
2022-11-23T01:54:55.758Z,11.23
2022-11-23T01:57:39.039Z,11.55
2022-11-23T02:00:08.215Z,10.68
2022-11-23T02:02:58.331Z,11.90
2022-11-23T02:05:35.170Z,10.82
2022-11-23T02:08:03.326Z,11.38
2022-11-23T02:10:32.250Z,10.93
2022-11-23T02:13:10.981Z,10.48
2022-11-23T02:15:38.405Z,9.65
2022-11-23T02:18:15.755Z,9.68
2022-11-23T02:20:46.066Z,9.27
2022-11-23T02:24:00.273Z,9.20
2022-11-23T02:26:33.126Z,8.68
2022-11-23T02:29:20.500Z,8.43
2022-11-23T02:31:47.439Z,8.20
2022-11-23T02:34:14.931Z,8.43
2022-11-23T02:36:54.837Z,8.77
2022-11-23T02:39:32.967Z,8.60
2022-11-23T02:42:00.838Z,9.43
2022-11-23T02:47:26.368Z,9.27
2022-11-23T02:52:37.517Z,10.15
2022-11-23T02:55:04.515Z,10.55
2022-11-23T02:57:31.444Z,10.43
2022-11-23T02:59:58.181Z,9.73
2022-11-23T03:02:25.012Z,9.73
2022-11-23T03:04:53.186Z,9.82
2022-11-23T03:07:20.434Z,8.95
2022-11-23T03:09:48.917Z,9.75
2022-11-23T03:12:16.655Z,9.55
2022-11-23T03:14:43.632Z,8.10
2022-11-23T03:17:10.953Z,8.13
2022-11-23T03:19:41.196Z,8.75
2022-11-23T03:22:08.661Z,8.75
2022-11-23T03:24:35.712Z,9.80
2022-11-23T03:27:04.912Z,9.18
2022-11-23T03:29:33.381Z,8.95
2022-11-23T03:32:05.679Z,8.52
2022-11-23T03:34:32.914Z,8.63
2022-11-23T03:36:59.794Z,8.02
2022-11-23T03:39:26.586Z,8.73
2022-11-23T03:41:59.238Z,8.02
2022-11-23T03:44:32.054Z,7.65
2022-11-23T03:46:59.347Z,7.85
2022-11-23T03:49:27.674Z,8.95
2022-11-23T03:51:54.914Z,8.30
2022-11-23T03:54:21.679Z,8.75
2022-11-23T03:56:48.426Z,9.35
2022-11-23T03:59:15.966Z,8.80
2022-11-23T04:01:42.810Z,9.23
2022-11-23T04:04:18.833Z,8.52
2022-11-23T04:07:00.226Z,8.32
2022-11-23T04:09:31.817Z,9.07
2022-11-23T04:12:19.814Z,8.90
2022-11-23T04:14:46.669Z,8.63
2022-11-23T04:17:13.428Z,8.27
2022-11-23T04:19:40.239Z,7.72
2022-11-23T04:22:07.753Z,8.10
2022-11-23T04:24:39.865Z,7.47
2022-11-23T04:27:08.324Z,7.70
2022-11-23T04:29:35.311Z,6.82
2022-11-23T04:32:02.130Z,6.25
2022-11-23T04:34:28.914Z,6.50
2022-11-23T04:36:55.747Z,7.03
2022-11-23T04:39:29.950Z,5.82
2022-11-23T04:42:14.335Z,6.10
2022-11-23T04:44:47.463Z,5.85
2022-11-23T04:47:14.299Z,6.13
2022-11-23T04:49:41.062Z,5.60
2022-11-23T04:52:08.247Z,5.97
2022-11-23T04:54:42.118Z,5.20
2022-11-23T04:57:09.718Z,6.40
2022-11-23T04:59:38.388Z,5.90
2022-11-23T05:02:05.605Z,5.47
2022-11-23T05:04:38.441Z,5.50
2022-11-23T05:07:06.199Z,6.43
2022-11-23T05:09:34.969Z,5.47
2022-11-23T05:12:10.135Z,6.35
2022-11-23T05:14:37.026Z,6.05
2022-11-23T05:17:04.313Z,6.85
2022-11-23T05:19:31.387Z,6.55
2022-11-23T05:21:58.717Z,6.25
2022-11-23T05:24:26.005Z,6.53
2022-11-23T05:27:04.577Z,6.35
2022-11-23T05:29:31.671Z,5.78
2022-11-23T05:31:58.550Z,5.47
2022-11-23T05:34:25.427Z,5.60
2022-11-23T05:36:52.202Z,5.90
2022-11-23T05:39:20.070Z,6.07
2022-11-23T05:41:50.257Z,6.20
2022-11-23T05:44:30.197Z,5.60
2022-11-23T05:46:57.517Z,6.03
2022-11-23T05:49:25.008Z,6.15
2022-11-23T05:51:52.242Z,6.20
2022-11-23T05:54:19.674Z,5.95
2022-11-23T05:56:56.437Z,5.50
2022-11-23T05:59:30.929Z,6.28
2022-11-23T06:02:01.574Z,5.85
2022-11-23T06:04:32.064Z,5.95
2022-11-23T06:07:01.018Z,6.60
2022-11-23T06:09:33.186Z,5.72
2022-11-23T06:12:06.439Z,6.70
2022-11-23T06:14:34.491Z,6.40
2022-11-23T06:17:01.354Z,6.40
2022-11-23T06:19:34.252Z,5.65
2022-11-23T06:22:02.135Z,6.00
2022-11-23T06:24:32.809Z,5.28
2022-11-23T06:27:25.598Z,5.90
2022-11-23T06:29:52.569Z,5.45
2022-11-23T06:32:21.449Z,6.25
2022-11-23T06:34:48.327Z,6.70
2022-11-23T06:37:15.202Z,5.55
2022-11-23T06:39:45.299Z,5.68
2022-11-23T06:45:00.318Z,5.07
2022-11-23T06:47:29.357Z,4.63
2022-11-23T06:49:57.457Z,4.47
2022-11-23T06:52:27.919Z,4.53
2022-11-23T06:54:55.090Z,3.67
2022-11-23T06:57:24.032Z,3.97
2022-11-23T06:59:51.172Z,3.58
2022-11-23T07:02:23.935Z,3.50
2022-11-23T07:04:52.912Z,2.90
2022-11-23T07:07:20.193Z,2.88
2022-11-23T07:09:57.418Z,2.63
2022-11-23T07:12:32.225Z,2.42
2022-11-23T07:15:01.109Z,2.58
2022-11-23T07:17:33.377Z,2.70
2022-11-23T07:20:00.228Z,2.75
2022-11-23T07:22:26.984Z,2.35
2022-11-23T07:24:53.843Z,2.63
2022-11-23T07:27:20.721Z,2.50
2022-11-23T07:29:47.707Z,2.30
2022-11-23T07:32:15.497Z,1.77
2022-11-23T07:34:42.608Z,2.30
2022-11-23T07:37:09.447Z,2.22
2022-11-23T07:39:56.426Z,2.83
2022-11-23T07:42:36.757Z,2.28
2022-11-23T07:45:08.220Z,2.40
2022-11-23T07:47:37.455Z,3.33
2022-11-23T07:50:07.096Z,2.67
2022-11-23T07:52:35.741Z,2.47
2022-11-23T07:55:02.686Z,2.60
2022-11-23T07:57:29.659Z,2.28
2022-11-23T07:59:56.558Z,2.30
2022-11-23T08:02:23.922Z,2.35
2022-11-23T08:04:50.769Z,2.20
2022-11-23T08:07:17.625Z,2.53
2022-11-23T08:09:44.502Z,2.72
2022-11-23T08:12:11.297Z,2.35
2022-11-23T08:14:38.023Z,2.53
2022-11-23T08:17:05.368Z,2.13
2022-11-23T08:19:32.216Z,2.28
2022-11-23T08:21:59.015Z,2.75
2022-11-23T08:24:25.961Z,3.67
2022-11-23T08:26:52.744Z,2.60
2022-11-23T08:29:20.046Z,2.42
2022-11-23T08:31:47.421Z,2.60
2022-11-23T08:34:14.439Z,2.53
2022-11-23T08:36:41.458Z,2.97
2022-11-23T08:39:11.186Z,2.20
2022-11-23T08:41:38.499Z,3.53
2022-11-23T08:44:05.957Z,2.40
2022-11-23T08:46:32.954Z,2.53
2022-11-23T08:48:59.907Z,2.80
2022-11-23T08:51:26.933Z,2.40
2022-11-23T08:53:53.829Z,3.13
2022-11-23T08:56:20.941Z,2.03
2022-11-23T08:58:47.932Z,2.75
2022-11-23T09:01:17.474Z,2.50
2022-11-23T09:03:45.399Z,2.60
2022-11-23T09:06:12.851Z,2.80
2022-11-23T09:08:39.927Z,3.15
2022-11-23T09:11:11.409Z,3.33
2022-11-23T09:13:39.306Z,2.35
2022-11-23T09:16:07.853Z,2.33
2022-11-23T09:18:36.578Z,2.97
2022-11-23T09:21:05.802Z,3.03
2022-11-23T09:23:33.247Z,2.63
2022-11-23T09:26:01.654Z,2.63
2022-11-23T09:28:29.455Z,2.70
2022-11-23T09:30:57.541Z,2.88
2022-11-23T09:33:25.612Z,2.00
2022-11-23T09:36:01.006Z,2.80
2022-11-23T09:38:54.634Z,2.88
2022-11-23T09:41:56.743Z,2.83
2022-11-23T09:45:00.608Z,2.40
2022-11-23T09:48:19.797Z,2.05
2022-11-23T09:51:18.938Z,2.15
2022-11-23T09:53:52.203Z,2.15
2022-11-23T09:56:25.154Z,2.13
2022-11-23T09:58:57.698Z,2.58
2022-11-23T10:01:27.697Z,2.45
2022-11-23T10:03:55.332Z,2.47
2022-11-23T10:06:29.230Z,2.33
2022-11-23T10:09:29.566Z,2.50
2022-11-23T10:12:30.202Z,1.90
2022-11-23T10:15:12.194Z,2.30
2022-11-23T10:18:09.191Z,2.38
2022-11-23T10:21:00.550Z,2.42
2022-11-23T10:24:06.039Z,2.95
2022-11-23T10:26:39.939Z,2.28
2022-11-23T10:29:36.793Z,1.88
2022-11-23T10:32:12.706Z,2.75
2022-11-23T10:35:16.065Z,2.20
2022-11-23T10:37:43.666Z,2.72
2022-11-23T10:40:26.446Z,2.40
2022-11-23T10:43:11.393Z,2.35
2022-11-23T10:45:38.211Z,2.65
2022-11-23T10:48:05.305Z,3.35
2022-11-23T10:50:40.267Z,2.70
2022-11-23T10:53:23.252Z,2.60
2022-11-23T10:55:55.107Z,2.63
2022-11-23T10:58:35.127Z,2.85
2022-11-23T11:01:06.398Z,2.50
2022-11-23T11:03:35.570Z,2.40
2022-11-23T11:06:11.578Z,2.15
2022-11-23T11:09:03.796Z,2.67
2022-11-23T11:11:37.288Z,2.83
2022-11-23T11:14:19.922Z,2.47
2022-11-23T11:16:56.022Z,2.05
2022-11-23T11:19:34.481Z,2.10
2022-11-23T11:22:32.113Z,2.22
2022-11-23T11:24:59.194Z,2.38
2022-11-23T11:27:29.674Z,2.10
2022-11-23T11:30:05.568Z,2.22
2022-11-23T11:32:44.077Z,2.20
2022-11-23T11:35:27.212Z,2.10
2022-11-23T11:38:08.008Z,2.13
2022-11-23T11:40:52.481Z,2.05
2022-11-23T11:43:45.619Z,2.33
2022-11-23T11:46:28.990Z,2.10
2022-11-23T11:49:14.941Z,2.10
2022-11-23T11:51:49.817Z,2.10
2022-11-23T11:54:44.609Z,2.00
2022-11-23T11:57:20.522Z,2.10
2022-11-23T11:59:53.069Z,1.58
2022-11-23T12:02:42.899Z,2.30
2022-11-23T12:05:36.711Z,2.08
2022-11-23T12:08:29.331Z,1.70
2022-11-23T12:11:00.157Z,2.00
2022-11-23T12:13:36.839Z,2.05
2022-11-23T12:16:30.660Z,2.72
2022-11-23T12:19:20.578Z,1.83
2022-11-23T12:22:23.378Z,1.73
2022-11-23T12:25:24.682Z,1.60
2022-11-23T12:28:25.237Z,1.77
2022-11-23T12:31:28.451Z,1.63
2022-11-23T12:34:24.887Z,1.55
2022-11-23T12:37:04.391Z,1.67
2022-11-23T12:40:24.566Z,1.98
2022-11-23T12:43:06.101Z,1.50
2022-11-23T12:46:00.271Z,1.67
2022-11-23T12:48:42.105Z,2.15
2022-11-23T12:51:44.942Z,1.30
2022-11-23T12:54:31.736Z,1.70
2022-11-23T12:57:31.413Z,1.23
2022-11-23T13:00:08.069Z,1.42
2022-11-23T13:02:56.730Z,1.50
2022-11-23T13:06:00.182Z,1.90
2022-11-23T13:09:03.765Z,1.38
2022-11-23T13:12:15.157Z,1.20
2022-11-23T13:15:12.274Z,1.40
2022-11-23T13:17:57.079Z,1.42
2022-11-23T13:20:49.150Z,1.70
2022-11-23T13:23:21.580Z,1.27
2022-11-23T13:26:17.510Z,1.20
2022-11-23T13:28:53.274Z,1.10
2022-11-23T13:31:30.311Z,1.30
2022-11-23T13:34:03.952Z,1.80
2022-11-23T13:36:56.355Z,1.83
2022-11-23T13:39:51.717Z,1.58
2022-11-23T13:42:19.322Z,1.60
2022-11-23T13:44:46.176Z,1.50
2022-11-23T13:47:20.069Z,1.33
2022-11-23T13:49:50.538Z,1.42
2022-11-23T13:52:23.299Z,1.30
2022-11-23T13:55:10.562Z,1.30
2022-11-23T13:57:43.487Z,1.38
2022-11-23T14:00:49.252Z,1.48
2022-11-23T14:03:47.693Z,1.10
2022-11-23T14:06:35.837Z,1.00
2022-11-23T14:09:30.918Z,1.27
2022-11-23T14:12:33.557Z,1.48
2022-11-23T14:15:22.213Z,1.20
2022-11-23T14:18:27.599Z,1.25
2022-11-23T14:21:37.162Z,1.60
2022-11-23T14:24:42.895Z,1.00
2022-11-23T14:27:52.314Z,1.60
2022-11-23T14:30:28.172Z,1.52
2022-11-23T14:33:24.864Z,1.38
2022-11-23T14:36:20.018Z,1.05
2022-11-23T14:38:52.837Z,1.38
2022-11-23T14:41:28.408Z,0.93
2022-11-23T14:43:58.143Z,1.20
2022-11-23T14:46:25.711Z,0.90
2022-11-23T14:49:03.565Z,1.15
2022-11-23T14:51:31.571Z,1.02
2022-11-23T14:54:06.891Z,1.30
2022-11-23T14:56:47.411Z,1.20
2022-11-23T14:59:17.131Z,1.27
2022-11-23T15:02:35.195Z,1.05
2022-11-23T15:05:19.001Z,1.00
2022-11-23T15:08:09.286Z,1.35
2022-11-23T15:10:38.926Z,1.20
2022-11-23T15:13:22.597Z,1.30
2022-11-23T15:15:58.125Z,1.25
2022-11-23T15:18:39.071Z,1.20
2022-11-23T15:21:12.171Z,1.30
2022-11-23T15:23:42.566Z,1.13
2022-11-23T15:26:48.862Z,1.10
2022-11-23T15:29:38.482Z,1.20
2022-11-23T15:32:33.743Z,1.42
2022-11-23T15:35:13.992Z,1.33
2022-11-23T15:37:49.829Z,1.13
2022-11-23T15:40:19.317Z,1.38
2022-11-23T15:42:51.040Z,1.15
2022-11-23T15:45:57.021Z,1.77
2022-11-23T15:48:35.523Z,1.30
2022-11-23T15:51:08.408Z,1.73
2022-11-23T15:53:53.205Z,1.30
2022-11-23T15:56:31.913Z,1.15
2022-11-23T15:59:31.558Z,1.00
2022-11-23T16:02:04.228Z,1.15
2022-11-23T16:04:41.211Z,1.15
2022-11-23T16:07:26.305Z,1.40
2022-11-23T16:10:19.835Z,1.23
2022-11-23T16:12:58.750Z,1.30
2022-11-23T16:16:00.754Z,1.25
2022-11-23T16:18:27.982Z,1.30
2022-11-23T16:21:01.551Z,1.55
2022-11-23T16:23:47.492Z,1.83
2022-11-23T16:26:15.918Z,1.58
2022-11-23T16:28:58.019Z,1.30
2022-11-23T16:31:38.362Z,1.45
2022-11-23T16:34:18.908Z,1.35
2022-11-23T16:36:46.022Z,1.60
2022-11-23T16:39:13.111Z,1.50
2022-11-23T16:41:40.316Z,2.25
2022-11-23T16:44:07.162Z,1.88
2022-11-23T16:46:35.930Z,2.00
2022-11-23T16:49:14.287Z,2.33
2022-11-23T16:51:41.054Z,2.35
2022-11-23T16:54:13.586Z,2.80
2022-11-23T16:56:41.602Z,2.53
2022-11-23T16:59:18.246Z,2.40
2022-11-23T17:01:53.896Z,2.67
2022-11-23T17:04:24.497Z,2.92
2022-11-23T17:06:51.382Z,3.55
2022-11-23T17:09:18.106Z,3.35
2022-11-23T17:11:48.259Z,3.60
2022-11-23T17:14:29.961Z,3.53
2022-11-23T17:16:56.912Z,3.60
2022-11-23T17:19:23.741Z,3.95
2022-11-23T17:21:50.757Z,3.65
2022-11-23T17:24:17.685Z,3.60
2022-11-23T17:26:52.907Z,4.38
2022-11-23T17:29:21.570Z,4.10
2022-11-23T17:31:50.356Z,3.97
2022-11-23T17:34:17.954Z,4.10
2022-11-23T17:36:48.070Z,4.00
2022-11-23T17:39:21.142Z,4.13
2022-11-23T17:41:48.598Z,4.15
2022-11-23T17:44:17.455Z,4.20
2022-11-23T17:46:46.795Z,4.72
2022-11-23T17:49:17.914Z,4.78
2022-11-23T17:51:44.744Z,4.38
2022-11-23T17:54:12.038Z,5.00
2022-11-23T17:56:39.254Z,4.80
2022-11-23T17:59:08.895Z,5.10
2022-11-23T18:01:35.844Z,4.78
2022-11-23T18:04:04.658Z,5.30
2022-11-23T18:06:31.566Z,5.35
2022-11-23T18:08:58.319Z,5.00
2022-11-23T18:11:25.599Z,4.68
2022-11-23T18:13:52.582Z,5.32
2022-11-23T18:16:21.412Z,4.85
2022-11-23T18:18:50.862Z,5.18
2022-11-23T18:21:18.631Z,4.88
2022-11-23T18:23:45.706Z,5.00
2022-11-23T18:26:25.502Z,4.85
2022-11-23T18:28:53.336Z,4.70
2022-11-23T18:31:20.368Z,5.55
2022-11-23T18:33:47.742Z,4.82
2022-11-23T18:36:17.527Z,4.40
2022-11-23T18:38:47.275Z,4.78
2022-11-23T18:41:16.688Z,4.72
2022-11-23T18:43:45.111Z,4.80
2022-11-23T18:46:21.677Z,4.13
2022-11-23T18:48:50.558Z,4.22
2022-11-23T18:51:18.518Z,4.30
2022-11-23T18:53:47.519Z,4.68
2022-11-23T18:56:14.539Z,4.50
2022-11-23T18:58:44.483Z,4.32
2022-11-23T19:01:18.458Z,4.40
2022-11-23T19:03:48.133Z,4.72
2022-11-23T19:06:17.974Z,4.38
2022-11-23T19:08:53.267Z,3.90
2022-11-23T19:11:29.394Z,4.55
2022-11-23T19:14:00.410Z,4.03
2022-11-23T19:16:31.228Z,4.45
2022-11-23T19:19:01.699Z,4.05
2022-11-23T19:21:31.760Z,4.72
2022-11-23T19:24:00.256Z,4.70
2022-11-23T19:26:29.789Z,4.05
2022-11-23T19:28:57.355Z,4.10
2022-11-23T19:31:30.611Z,4.20
2022-11-23T19:34:05.807Z,4.10
2022-11-23T19:36:38.428Z,4.32
2022-11-23T19:39:06.201Z,4.93
2022-11-23T19:41:33.313Z,4.32
2022-11-23T19:44:01.664Z,4.00
2022-11-23T19:46:30.630Z,4.00
2022-11-23T19:48:58.634Z,4.72
2022-11-23T19:51:27.348Z,4.88
2022-11-23T19:53:57.469Z,4.13
2022-11-23T19:56:28.675Z,4.90
2022-11-23T19:58:58.622Z,4.40
2022-11-23T20:01:36.216Z,4.43
2022-11-23T20:04:09.323Z,4.10
2022-11-23T20:06:42.246Z,4.80
2022-11-23T20:09:13.389Z,4.95
2022-11-23T20:11:40.825Z,4.32
2022-11-23T20:14:11.746Z,4.38
2022-11-23T20:16:39.299Z,4.47
2022-11-23T20:19:08.912Z,4.63
2022-11-23T20:21:37.973Z,5.20
2022-11-23T20:24:13.823Z,5.22
2022-11-23T20:26:42.778Z,5.07
2022-11-23T20:29:10.857Z,4.93
2022-11-23T20:31:38.422Z,4.88
2022-11-23T20:34:08.127Z,4.88
2022-11-23T20:36:38.326Z,4.70
2022-11-23T20:39:09.618Z,5.22
2022-11-23T20:41:37.858Z,4.60
2022-11-23T20:44:13.548Z,4.45
2022-11-23T20:49:29.790Z,4.50
2022-11-23T20:51:56.874Z,4.38
2022-11-23T20:54:23.665Z,4.60
2022-11-23T20:56:50.435Z,4.50
2022-11-23T20:59:17.309Z,4.68
2022-11-23T21:01:44.221Z,4.35
2022-11-23T21:04:11.006Z,4.38
2022-11-23T21:06:39.888Z,4.30
2022-11-23T21:09:09.056Z,4.35
2022-11-23T21:11:54.581Z,4.32
2022-11-23T21:14:25.393Z,4.15
2022-11-23T21:16:55.840Z,4.30
2022-11-23T21:19:32.179Z,4.47
2022-11-23T21:22:04.524Z,4.93
2022-11-23T21:24:32.025Z,4.47
2022-11-23T21:26:59.046Z,4.80
2022-11-23T21:29:26.118Z,4.78
2022-11-23T21:31:53.493Z,3.90
2022-11-23T21:34:29.262Z,5.57
2022-11-23T21:36:58.939Z,4.70
2022-11-23T21:39:25.891Z,4.57
2022-11-23T21:41:54.394Z,4.38
2022-11-23T21:44:24.813Z,4.10
2022-11-23T21:46:51.855Z,4.53
2022-11-23T21:49:18.778Z,4.68
2022-11-23T21:51:45.951Z,4.50
2022-11-23T21:54:16.431Z,4.85
2022-11-23T21:56:45.508Z,4.60
2022-11-23T21:59:12.852Z,5.32
2022-11-23T22:01:40.614Z,5.32
2022-11-23T22:04:15.186Z,5.28
2022-11-23T22:06:44.307Z,4.55
2022-11-23T22:09:12.914Z,4.13
2022-11-23T22:11:42.989Z,4.53
2022-11-23T22:14:15.899Z,4.45
2022-11-23T22:16:53.571Z,3.92
2022-11-23T22:19:20.397Z,5.00
2022-11-23T22:21:47.321Z,4.55
2022-11-23T22:24:19.466Z,4.88
2022-11-23T22:26:47.700Z,4.40
2022-11-23T22:29:15.476Z,4.03
2022-11-23T22:31:43.472Z,4.47
2022-11-23T22:34:13.065Z,4.40
2022-11-23T22:36:40.338Z,4.22
2022-11-23T22:39:08.718Z,4.57
2022-11-23T22:41:37.311Z,4.85
2022-11-23T22:44:10.206Z,4.47
2022-11-23T22:46:38.589Z,4.20
2022-11-23T22:49:05.732Z,3.97
2022-11-23T22:51:32.975Z,4.63
2022-11-23T22:54:01.500Z,4.22
2022-11-23T22:56:30.574Z,4.25
2022-11-23T22:58:57.607Z,3.78
2022-11-23T23:01:28.894Z,3.75
2022-11-23T23:03:58.852Z,3.97
2022-11-23T23:06:29.352Z,3.97
2022-11-23T23:09:01.176Z,4.07
2022-11-23T23:11:30.507Z,4.35
2022-11-23T23:13:58.206Z,3.95
2022-11-23T23:16:26.238Z,4.55
2022-11-23T23:18:56.676Z,3.80
2022-11-23T23:21:24.640Z,4.03
2022-11-23T23:23:55.778Z,4.20
2022-11-23T23:26:26.113Z,3.85
2022-11-23T23:29:00.713Z,3.45
2022-11-23T23:31:29.697Z,4.43
2022-11-23T23:33:57.102Z,3.63
2022-11-23T23:36:24.731Z,4.85
2022-11-23T23:38:51.995Z,3.88
2022-11-23T23:41:19.327Z,4.57
2022-11-23T23:43:47.935Z,3.45
2022-11-23T23:46:15.339Z,3.65
2022-11-23T23:48:42.496Z,3.67
2022-11-23T23:51:19.164Z,3.72
2022-11-23T23:53:47.245Z,4.13
2022-11-23T23:56:19.763Z,4.15
2022-11-23T23:58:46.935Z,3.50
